createdAt,value
2023-03-31T00:00:52.907Z,5.07
2023-03-31T00:03:24.638Z,4.15
2023-03-31T00:06:01.470Z,4.05
2023-03-31T00:08:36.058Z,5.68
2023-03-31T00:11:05.722Z,4.45
2023-03-31T00:13:32.549Z,5.57
2023-03-31T00:16:02.327Z,7.70
2023-03-31T00:21:25.401Z,8.35
2023-03-31T00:24:02.654Z,9.90
2023-03-31T00:26:31.248Z,7.03
2023-03-31T00:28:59.268Z,5.55
2023-03-31T00:31:27.891Z,8.38
2023-03-31T00:33:55.391Z,3.75
2023-03-31T00:36:27.605Z,5.65
2023-03-31T00:39:00.236Z,6.40
2023-03-31T00:41:28.317Z,3.95
2023-03-31T00:44:19.314Z,7.00
2023-03-31T00:47:08.182Z,4.57
2023-03-31T00:49:40.780Z,8.55
2023-03-31T00:52:13.782Z,9.35
2023-03-31T00:54:43.277Z,6.45
2023-03-31T00:57:11.450Z,5.20
2023-03-31T00:59:47.137Z,7.07
2023-03-31T01:02:16.068Z,5.85
2023-03-31T01:04:51.287Z,6.78
2023-03-31T01:07:31.369Z,5.85
2023-03-31T01:10:01.989Z,4.25
2023-03-31T01:12:28.893Z,5.45
2023-03-31T01:14:59.121Z,6.68
2023-03-31T01:20:19.612Z,10.38
2023-03-31T01:23:15.963Z,8.82
2023-03-31T01:26:01.729Z,6.90
2023-03-31T01:28:31.352Z,3.10
2023-03-31T01:31:27.373Z,4.82
2023-03-31T01:34:25.436Z,6.53
2023-03-31T01:37:11.918Z,8.05
2023-03-31T01:40:09.909Z,6.20
2023-03-31T01:42:44.203Z,4.72
2023-03-31T01:45:19.210Z,7.40
2023-03-31T01:47:54.809Z,7.35
2023-03-31T01:50:31.331Z,10.23
2023-03-31T01:52:58.194Z,6.72
2023-03-31T01:55:31.381Z,8.75
2023-03-31T01:58:06.514Z,6.57
2023-03-31T02:00:42.521Z,3.88
2023-03-31T02:03:22.459Z,6.82
2023-03-31T02:05:59.898Z,4.03
2023-03-31T02:08:30.438Z,6.10
2023-03-31T02:10:59.365Z,6.97
2023-03-31T02:16:02.203Z,7.53
2023-03-31T02:18:33.352Z,9.48
2023-03-31T02:21:01.478Z,4.70
2023-03-31T02:23:32.468Z,7.75
2023-03-31T02:26:10.502Z,4.03
2023-03-31T02:28:37.917Z,8.52
2023-03-31T02:31:28.711Z,7.78
2023-03-31T02:33:56.620Z,7.65
2023-03-31T02:36:24.964Z,7.57
2023-03-31T02:38:58.696Z,13.88
2023-03-31T02:41:25.787Z,9.10
2023-03-31T02:43:52.708Z,11.25
2023-03-31T02:46:19.740Z,6.07
2023-03-31T02:48:50.194Z,8.40
2023-03-31T02:51:31.502Z,9.80
2023-03-31T02:54:22.576Z,3.78
2023-03-31T02:57:14.325Z,7.38
2023-03-31T02:59:51.225Z,11.65
2023-03-31T03:02:31.455Z,9.07
2023-03-31T03:05:07.465Z,11.90
2023-03-31T03:07:46.202Z,12.15
2023-03-31T03:10:31.816Z,7.80
2023-03-31T03:13:26.985Z,7.55
2023-03-31T03:16:04.497Z,9.05
2023-03-31T03:18:32.563Z,7.07
2023-03-31T03:20:59.942Z,12.63
2023-03-31T03:23:27.301Z,10.25
2023-03-31T03:25:58.023Z,11.60
2023-03-31T03:28:25.306Z,13.40
2023-03-31T03:30:52.364Z,9.88
2023-03-31T03:33:19.428Z,8.60
2023-03-31T03:35:46.465Z,7.47
2023-03-31T03:38:13.907Z,9.55
2023-03-31T03:40:40.740Z,7.40
2023-03-31T03:43:07.491Z,7.38
2023-03-31T03:45:34.291Z,9.07
2023-03-31T03:48:01.169Z,8.07
2023-03-31T03:50:28.068Z,7.97
2023-03-31T03:52:54.934Z,9.20
2023-03-31T03:55:21.985Z,9.80
2023-03-31T03:57:48.848Z,8.00
2023-03-31T04:00:17.479Z,9.55
2023-03-31T04:02:44.770Z,5.88
2023-03-31T04:05:12.515Z,9.30
2023-03-31T04:07:39.890Z,11.63
2023-03-31T04:10:07.413Z,10.05
2023-03-31T04:12:37.439Z,10.25
2023-03-31T04:15:06.131Z,8.45
2023-03-31T04:17:33.403Z,11.50
2023-03-31T04:20:12.044Z,13.77
2023-03-31T04:22:43.279Z,10.65
2023-03-31T04:25:18.166Z,7.32
2023-03-31T04:27:50.965Z,13.57
2023-03-31T04:32:58.612Z,6.28
2023-03-31T04:35:27.938Z,7.68
2023-03-31T04:37:59.355Z,15.27
2023-03-31T04:40:27.181Z,11.68
2023-03-31T04:42:54.089Z,6.18
2023-03-31T04:45:20.908Z,10.45
2023-03-31T04:47:48.182Z,9.05
2023-03-31T04:50:16.935Z,11.80
2023-03-31T04:52:44.529Z,8.57
2023-03-31T04:55:11.688Z,9.65
2023-03-31T04:57:38.533Z,10.65
2023-03-31T05:00:08.197Z,7.18
2023-03-31T05:02:35.358Z,10.57
2023-03-31T05:05:02.338Z,8.55
2023-03-31T05:09:58.898Z,10.63
2023-03-31T05:12:26.504Z,8.05
2023-03-31T05:14:53.496Z,8.27
2023-03-31T05:17:20.288Z,8.05
2023-03-31T05:19:47.083Z,7.13
2023-03-31T05:22:13.971Z,6.40
2023-03-31T05:24:41.564Z,11.60
2023-03-31T05:27:08.537Z,9.15
2023-03-31T05:29:35.395Z,8.32
2023-03-31T05:32:03.647Z,8.48
2023-03-31T05:34:31.862Z,17.77
2023-03-31T05:36:58.861Z,9.15
2023-03-31T05:39:25.982Z,10.95
2023-03-31T05:41:52.873Z,10.85
2023-03-31T05:44:21.028Z,7.57
2023-03-31T05:46:48.560Z,13.15
2023-03-31T05:49:17.308Z,9.52
2023-03-31T05:51:44.336Z,6.88
2023-03-31T05:54:11.194Z,9.10
2023-03-31T05:56:38.093Z,9.95
2023-03-31T05:59:05.507Z,5.90
2023-03-31T06:01:33.286Z,7.18
2023-03-31T06:04:00.257Z,8.57
2023-03-31T06:06:28.169Z,7.03
2023-03-31T06:08:54.998Z,9.07
2023-03-31T06:11:22.994Z,12.32
2023-03-31T06:13:50.083Z,9.05
2023-03-31T06:16:17.739Z,7.93
2023-03-31T06:18:45.606Z,11.98
2023-03-31T06:21:17.544Z,12.52
2023-03-31T06:23:45.859Z,11.52
2023-03-31T06:26:15.603Z,8.50
2023-03-31T06:28:42.967Z,12.38
2023-03-31T06:31:15.307Z,14.82
2023-03-31T06:33:43.185Z,10.50
2023-03-31T06:36:12.178Z,14.95
2023-03-31T06:38:40.071Z,15.25
2023-03-31T06:41:08.874Z,8.82
2023-03-31T06:43:36.288Z,9.63
2023-03-31T06:46:07.348Z,14.18
2023-03-31T06:48:34.472Z,15.80
2023-03-31T06:51:03.585Z,10.27
2023-03-31T06:53:31.444Z,9.32
2023-03-31T06:55:58.779Z,15.88
2023-03-31T06:58:26.888Z,17.20
2023-03-31T07:00:55.223Z,14.15
2023-03-31T07:03:25.565Z,14.38
2023-03-31T07:05:53.703Z,11.35
2023-03-31T07:08:22.022Z,13.30
2023-03-31T07:10:59.954Z,11.43
2023-03-31T07:13:27.386Z,13.23
2023-03-31T07:15:54.882Z,9.52
2023-03-31T07:18:26.490Z,12.63
2023-03-31T07:20:53.646Z,12.43
2023-03-31T07:23:21.101Z,10.27
2023-03-31T07:25:48.615Z,15.75
2023-03-31T07:28:19.157Z,11.88
2023-03-31T07:30:45.978Z,15.23
2023-03-31T07:33:13.594Z,16.77
2023-03-31T07:35:41.488Z,16.42
2023-03-31T07:38:10.650Z,15.73
2023-03-31T07:40:39.073Z,13.98
2023-03-31T07:43:06.845Z,18.98
2023-03-31T07:45:35.137Z,13.23
2023-03-31T07:48:02.165Z,14.07
2023-03-31T07:50:29.050Z,16.58
2023-03-31T07:52:55.844Z,16.55
2023-03-31T07:55:24.771Z,16.63
2023-03-31T07:57:51.656Z,14.23
2023-03-31T08:00:19.584Z,14.98
2023-03-31T08:02:46.678Z,16.20
2023-03-31T08:05:15.512Z,12.65
2023-03-31T08:07:45.503Z,12.55
2023-03-31T08:10:16.709Z,18.45
2023-03-31T08:12:43.713Z,12.45
2023-03-31T08:15:12.001Z,9.80
2023-03-31T08:17:39.562Z,15.35
2023-03-31T08:20:08.256Z,15.93
2023-03-31T08:22:35.268Z,16.95
2023-03-31T08:25:05.890Z,8.98
2023-03-31T08:27:37.671Z,13.68
2023-03-31T08:30:06.935Z,14.15
2023-03-31T08:32:35.861Z,18.88
2023-03-31T08:35:02.917Z,15.32
2023-03-31T08:39:57.121Z,16.52
2023-03-31T08:42:31.628Z,15.50
2023-03-31T08:45:07.144Z,10.25
2023-03-31T08:47:37.295Z,13.68
2023-03-31T08:50:12.977Z,12.15
2023-03-31T08:52:50.616Z,13.82
2023-03-31T08:55:27.880Z,13.85
2023-03-31T08:58:20.960Z,8.85
2023-03-31T09:00:58.397Z,14.00
2023-03-31T09:03:28.149Z,13.70
2023-03-31T09:06:03.253Z,9.18
2023-03-31T09:08:33.688Z,7.30
2023-03-31T09:11:31.556Z,10.18
2023-03-31T09:14:21.438Z,4.28
2023-03-31T09:16:51.668Z,10.80
2023-03-31T09:19:31.633Z,6.13
2023-03-31T09:22:02.090Z,11.75
2023-03-31T09:24:32.257Z,6.57
2023-03-31T09:27:12.270Z,6.95
2023-03-31T09:29:57.732Z,6.90
2023-03-31T09:32:31.761Z,3.38
2023-03-31T09:35:14.917Z,2.90
2023-03-31T09:37:42.331Z,6.53
2023-03-31T09:40:17.889Z,6.93
2023-03-31T09:42:51.559Z,10.63
2023-03-31T09:45:20.402Z,12.10
2023-03-31T09:47:57.356Z,9.15
2023-03-31T09:50:26.890Z,12.15
2023-03-31T09:52:59.166Z,10.80
2023-03-31T09:55:39.609Z,19.65
2023-03-31T09:58:08.906Z,10.20
2023-03-31T10:00:36.666Z,5.15
2023-03-31T10:03:07.942Z,6.10
2023-03-31T10:05:37.997Z,5.72
2023-03-31T10:08:16.693Z,4.93
2023-03-31T10:11:07.357Z,5.53
2023-03-31T10:13:47.652Z,4.18
2023-03-31T10:16:23.530Z,4.22
2023-03-31T10:18:50.610Z,3.72
2023-03-31T10:21:24.714Z,7.32
2023-03-31T10:23:52.476Z,5.88
2023-03-31T10:26:23.000Z,5.97
2023-03-31T10:28:55.713Z,5.93
2023-03-31T10:33:56.670Z,9.38
2023-03-31T10:38:56.697Z,6.22
2023-03-31T10:44:02.900Z,5.78
2023-03-31T10:46:30.654Z,1.73
2023-03-31T10:49:00.136Z,3.53
2023-03-31T10:51:28.366Z,6.85
2023-03-31T10:54:00.821Z,4.45
2023-03-31T10:56:31.603Z,5.10
2023-03-31T10:59:10.708Z,1.55
2023-03-31T11:01:52.466Z,0.50
2023-03-31T11:04:31.897Z,0.88
2023-03-31T11:07:21.216Z,2.58
2023-03-31T11:10:19.022Z,1.77
2023-03-31T11:13:00.930Z,0.90
2023-03-31T11:15:31.751Z,1.05
2023-03-31T11:18:17.016Z,3.72
2023-03-31T11:21:22.299Z,1.83
2023-03-31T11:24:16.816Z,1.60
2023-03-31T11:26:51.042Z,1.60
2023-03-31T11:32:22.896Z,6.50
2023-03-31T11:34:55.480Z,3.42
2023-03-31T11:37:31.776Z,4.47
2023-03-31T11:40:22.405Z,3.92
2023-03-31T11:42:58.503Z,5.25
2023-03-31T11:45:31.607Z,3.53
2023-03-31T11:48:14.583Z,5.65
2023-03-31T11:50:44.627Z,2.22
2023-03-31T11:53:21.462Z,4.90
2023-03-31T11:55:52.260Z,4.35
2023-03-31T11:58:27.082Z,4.43
2023-03-31T12:01:00.126Z,7.75
2023-03-31T12:03:31.862Z,3.35
2023-03-31T12:06:17.663Z,8.05
2023-03-31T12:09:08.752Z,6.93
2023-03-31T12:12:02.689Z,6.53
2023-03-31T12:14:31.855Z,4.00
2023-03-31T12:17:09.205Z,2.60
2023-03-31T12:19:36.133Z,2.67
2023-03-31T12:22:20.890Z,4.05
2023-03-31T12:24:47.783Z,5.43
2023-03-31T12:27:18.934Z,3.10
2023-03-31T12:30:05.456Z,3.88
2023-03-31T12:32:36.946Z,2.15
2023-03-31T12:35:25.343Z,5.22
2023-03-31T12:38:12.290Z,1.92
2023-03-31T12:41:07.853Z,3.97
2023-03-31T12:44:11.972Z,2.78
2023-03-31T12:46:50.702Z,5.15
2023-03-31T12:49:20.231Z,5.95
2023-03-31T12:52:02.262Z,1.45
2023-03-31T12:54:31.459Z,4.82
2023-03-31T12:57:04.267Z,4.53
2023-03-31T12:59:44.656Z,4.18
2023-03-31T13:02:17.612Z,4.15
2023-03-31T13:04:44.819Z,4.85
2023-03-31T13:07:30.812Z,5.78
2023-03-31T13:09:59.004Z,6.45
2023-03-31T13:12:28.748Z,3.28
2023-03-31T13:17:58.988Z,3.63
2023-03-31T13:20:30.964Z,4.47
2023-03-31T13:23:08.076Z,5.22
2023-03-31T13:25:54.319Z,3.42
2023-03-31T13:28:24.360Z,4.97
2023-03-31T13:30:53.105Z,4.65
2023-03-31T13:33:31.713Z,7.38
2023-03-31T13:36:25.309Z,9.45
2023-03-31T13:39:17.788Z,4.63
2023-03-31T13:42:21.172Z,8.25
2023-03-31T13:45:22.635Z,4.82
2023-03-31T13:48:20.814Z,5.78
2023-03-31T13:50:50.279Z,6.97
2023-03-31T13:56:20.781Z,6.43
2023-03-31T13:59:01.710Z,5.63
2023-03-31T14:01:30.888Z,6.10
2023-03-31T14:04:31.802Z,5.03
2023-03-31T14:07:07.898Z,5.13
2023-03-31T14:09:40.178Z,6.90
2023-03-31T14:12:31.713Z,5.22
2023-03-31T14:14:58.744Z,6.13
2023-03-31T14:17:32.017Z,5.93
2023-03-31T14:20:19.926Z,5.90
2023-03-31T14:22:58.449Z,3.22
2023-03-31T14:25:32.334Z,2.83
2023-03-31T14:28:03.274Z,2.20
2023-03-31T14:30:33.461Z,5.30
2023-03-31T14:33:31.729Z,4.60
2023-03-31T14:36:32.064Z,2.95
2023-03-31T14:39:07.578Z,6.22
2023-03-31T14:41:34.869Z,4.68
2023-03-31T14:44:03.713Z,3.10
2023-03-31T14:46:30.995Z,3.70
2023-03-31T14:48:58.031Z,4.03
2023-03-31T14:53:59.155Z,4.53
2023-03-31T14:56:31.738Z,3.92
2023-03-31T14:58:58.689Z,6.53
2023-03-31T15:03:56.494Z,4.50
2023-03-31T15:06:34.358Z,3.33
2023-03-31T15:09:04.380Z,6.35
2023-03-31T15:11:31.914Z,5.32
2023-03-31T15:14:08.346Z,5.65
2023-03-31T15:16:43.053Z,3.88
2023-03-31T15:19:21.424Z,4.22
2023-03-31T15:21:57.555Z,3.47
2023-03-31T15:24:24.428Z,4.15
2023-03-31T15:27:10.622Z,5.30
2023-03-31T15:29:43.647Z,4.47
2023-03-31T15:32:27.906Z,6.18
2023-03-31T15:34:57.332Z,3.22
2023-03-31T15:37:30.804Z,5.05
2023-03-31T15:40:00.794Z,4.82
2023-03-31T15:42:28.647Z,3.60
2023-03-31T15:44:56.638Z,3.28
2023-03-31T15:50:08.526Z,5.70
2023-03-31T15:52:38.731Z,3.85
2023-03-31T15:55:23.787Z,4.80
2023-03-31T15:57:51.678Z,4.05
2023-03-31T16:00:31.916Z,2.58
2023-03-31T16:03:01.235Z,3.25
2023-03-31T16:05:37.362Z,2.75
2023-03-31T16:08:21.000Z,2.65
2023-03-31T16:10:50.605Z,4.28
2023-03-31T16:13:24.439Z,3.25
2023-03-31T16:15:53.987Z,3.00
2023-03-31T16:18:31.784Z,3.22
2023-03-31T16:21:04.067Z,5.60
2023-03-31T16:23:31.812Z,3.85
2023-03-31T16:26:00.203Z,5.13
2023-03-31T16:30:56.346Z,5.13
2023-03-31T16:33:24.918Z,11.70
2023-03-31T16:35:56.361Z,3.72
2023-03-31T16:38:27.592Z,6.30
2023-03-31T16:40:57.004Z,3.47
2023-03-31T16:43:31.794Z,2.47
2023-03-31T16:46:00.947Z,2.00
2023-03-31T16:50:58.132Z,4.45
2023-03-31T16:55:57.840Z,3.85
2023-03-31T16:58:25.409Z,2.47
2023-03-31T17:00:53.073Z,2.92
2023-03-31T17:03:20.770Z,2.38
2023-03-31T17:05:53.237Z,5.35
2023-03-31T17:08:22.882Z,2.88
2023-03-31T17:11:01.752Z,4.93
2023-03-31T17:13:28.817Z,6.43
2023-03-31T17:16:04.594Z,3.58
2023-03-31T17:18:39.786Z,5.18
2023-03-31T17:21:13.913Z,3.42
2023-03-31T17:23:41.373Z,4.30
2023-03-31T17:26:13.036Z,5.10
2023-03-31T17:28:40.077Z,5.70
2023-03-31T17:31:14.950Z,2.47
2023-03-31T17:33:42.686Z,8.40
2023-03-31T17:36:11.443Z,2.50
2023-03-31T17:38:40.069Z,6.25
2023-03-31T17:41:09.946Z,5.50
2023-03-31T17:43:38.291Z,7.90
2023-03-31T17:46:09.879Z,5.07
2023-03-31T17:48:38.868Z,2.70
2023-03-31T17:51:08.229Z,5.82
2023-03-31T17:53:36.619Z,5.13
2023-03-31T17:56:04.557Z,7.18
2023-03-31T17:58:32.763Z,5.00
2023-03-31T18:00:59.870Z,5.00
2023-03-31T18:05:56.175Z,8.65
2023-03-31T18:08:23.378Z,9.75
2023-03-31T18:10:50.807Z,6.57
2023-03-31T18:13:17.780Z,7.60
2023-03-31T18:15:53.147Z,3.97
2023-03-31T18:18:20.931Z,13.10
2023-03-31T18:20:48.141Z,6.72
2023-03-31T18:23:15.252Z,8.40
2023-03-31T18:25:46.795Z,7.45
2023-03-31T18:28:15.552Z,11.02
2023-03-31T18:30:43.817Z,5.22
2023-03-31T18:33:11.910Z,7.80
2023-03-31T18:35:39.537Z,7.18
2023-03-31T18:38:07.461Z,5.50
2023-03-31T18:40:34.321Z,3.25
2023-03-31T18:43:01.313Z,2.90
2023-03-31T18:47:57.283Z,4.07
2023-03-31T18:50:24.438Z,4.68
2023-03-31T18:52:55.002Z,3.30
2023-03-31T18:55:22.648Z,5.50
2023-03-31T18:57:49.748Z,3.00
2023-03-31T19:00:18.458Z,5.28
2023-03-31T19:02:45.479Z,2.53
2023-03-31T19:05:12.625Z,5.57
2023-03-31T19:07:40.951Z,5.85
2023-03-31T19:10:08.361Z,1.92
2023-03-31T19:12:35.224Z,1.90
2023-03-31T19:15:02.377Z,2.90
2023-03-31T19:17:29.322Z,2.10
2023-03-31T19:19:56.187Z,3.58
2023-03-31T19:22:23.160Z,5.75
2023-03-31T19:24:49.967Z,3.30
2023-03-31T19:27:17.090Z,3.08
2023-03-31T19:29:44.118Z,2.92
2023-03-31T19:32:11.252Z,1.90
2023-03-31T19:34:38.526Z,4.13
2023-03-31T19:37:05.402Z,2.42
2023-03-31T19:39:32.148Z,5.82
2023-03-31T19:41:59.034Z,7.88
2023-03-31T19:44:26.154Z,5.03
2023-03-31T19:46:52.975Z,2.78
2023-03-31T19:49:20.285Z,9.07
2023-03-31T19:51:47.432Z,2.97
2023-03-31T19:54:14.393Z,6.13
2023-03-31T19:56:41.197Z,6.63
2023-03-31T19:59:08.106Z,6.35
2023-03-31T20:01:36.146Z,5.40
2023-03-31T20:04:03.326Z,11.77
2023-03-31T20:06:31.999Z,4.07
2023-03-31T20:09:01.063Z,5.78
2023-03-31T20:13:57.063Z,6.22
2023-03-31T20:16:27.716Z,4.68
2023-03-31T20:18:58.748Z,3.22
2023-03-31T20:21:28.409Z,2.80
2023-03-31T20:23:55.773Z,3.25
2023-03-31T20:28:58.460Z,5.25
2023-03-31T20:33:57.524Z,2.13
2023-03-31T20:36:27.421Z,2.75
2023-03-31T20:38:54.332Z,5.20
2023-03-31T20:41:26.976Z,5.57
2023-03-31T20:43:55.123Z,5.80
2023-03-31T20:46:22.804Z,4.45
2023-03-31T20:48:53.331Z,4.63
2023-03-31T20:51:23.524Z,5.45
2023-03-31T20:53:55.485Z,3.03
2023-03-31T20:56:29.162Z,2.85
2023-03-31T20:58:59.840Z,4.70
2023-03-31T21:04:01.068Z,4.18
2023-03-31T21:08:57.864Z,4.43
2023-03-31T21:11:25.484Z,4.55
2023-03-31T21:13:53.440Z,3.70
2023-03-31T21:16:21.557Z,4.18
2023-03-31T21:18:48.926Z,5.55
2023-03-31T21:21:19.149Z,5.03
2023-03-31T21:23:46.916Z,3.17
2023-03-31T21:26:15.984Z,5.22
2023-03-31T21:28:44.126Z,4.28
2023-03-31T21:31:19.885Z,4.13
2023-03-31T21:33:47.739Z,5.25
2023-03-31T21:36:18.315Z,5.75
2023-03-31T21:38:46.026Z,4.28
2023-03-31T21:41:16.182Z,4.97
2023-03-31T21:43:44.248Z,6.80
2023-03-31T21:46:16.894Z,3.92
2023-03-31T21:48:44.363Z,4.55
2023-03-31T21:51:12.255Z,2.75
2023-03-31T21:53:39.220Z,8.32
2023-03-31T21:56:08.021Z,3.83
2023-03-31T21:58:35.119Z,4.60
2023-03-31T22:01:04.525Z,3.60
2023-03-31T22:03:34.633Z,3.60
2023-03-31T22:06:04.339Z,4.53
2023-03-31T22:08:30.961Z,4.30
2023-03-31T22:11:06.227Z,3.80
2023-03-31T22:13:33.378Z,2.13
2023-03-31T22:16:02.399Z,3.92
2023-03-31T22:20:57.341Z,2.83
2023-03-31T22:23:24.556Z,3.72
2023-03-31T22:25:51.545Z,1.95
2023-03-31T22:28:18.748Z,4.43
2023-03-31T22:30:45.816Z,7.22
2023-03-31T22:33:13.333Z,4.30
2023-03-31T22:35:40.281Z,6.22
2023-03-31T22:38:08.681Z,3.80
2023-03-31T22:40:36.535Z,4.80
2023-03-31T22:43:04.235Z,6.18
2023-03-31T22:47:56.948Z,6.15
2023-03-31T22:50:24.736Z,5.45
2023-03-31T22:52:52.287Z,6.18
2023-03-31T22:55:19.470Z,8.05
2023-03-31T22:57:49.601Z,6.07
2023-03-31T23:00:17.318Z,5.93
2023-03-31T23:02:44.276Z,5.30
2023-03-31T23:05:11.114Z,7.10
2023-03-31T23:07:38.819Z,5.85
2023-03-31T23:10:06.374Z,5.10
2023-03-31T23:12:33.245Z,4.35
2023-03-31T23:15:00.227Z,9.75
2023-03-31T23:17:27.406Z,5.68
2023-03-31T23:19:54.478Z,6.45
2023-03-31T23:22:21.906Z,4.82
2023-03-31T23:24:49.939Z,6.32
2023-03-31T23:27:16.689Z,3.50
2023-03-31T23:29:44.565Z,6.43
2023-03-31T23:32:11.376Z,3.80
2023-03-31T23:34:43.076Z,2.83
2023-03-31T23:37:12.188Z,4.20
2023-03-31T23:39:40.289Z,9.30
2023-03-31T23:42:08.246Z,5.50
2023-03-31T23:44:39.246Z,5.50
2023-03-31T23:47:06.743Z,5.47
2023-03-31T23:49:33.932Z,5.32
2023-03-31T23:52:01.553Z,2.75
2023-03-31T23:54:29.170Z,4.38
2023-03-31T23:56:56.438Z,8.68
2023-03-31T23:59:23.372Z,3.80
